KNQX/NQX METAR and TAF weather

Enter ICAO airport designator
Station Type Date Time Source
KNQX METAR 2021/07/24 19:53 UTC NOAA

KNQX 241953Z 29005KT 10SM SCT024 SCT250 33/23 A2998 RMK AO2 SLP150 T2 SET T03330228 $


Station Type Date Time Source
KNQX Decoded METAR 2021/07/24 19:53 UTC NOAA

KEY WEST NAVAL AIR STATION, FL, United States (KNQX) 24-35N 81-41W 6M
Jul 24, 2021 - 03:53 PM EDT / 2021.07.24 1953 UTC
Wind: from the WNW (290 degrees) at 6 MPH (5 KT):0
Visibility: 10 mile(s):0
Sky conditions: partly cloudy
Temperature: 91.9 F (33.3 C)
Heat index: 100.6 F (38.1 C):1
Dew Point: 73.0 F (22.8 C)
Relative Humidity: 54%
Pressure (altimeter): 29.98 in. Hg (1015 hPa)
ob: KNQX 241953Z 29005KT 10SM SCT024 SCT250 33/23 A2998 RMK AO2 SLP150 T2 SET T03330228
cycle: 20

Station Type Date Time Source
KNQX TAF 2021/07/24 15:03 UTC NOAA

TAF KNQX 2415/2515 27007KT 9999 VCTS FEW025 SCT050CB BKN250 QNH2990INS
BECMG 2420/2422 28008KT 9999 FEW025 SCT050 BKN250 QNH2990INS
FM250400 VRB05KT 9999 VCTS SCT025CB BKN050 BKN250 QNH2987INS T34/2419Z T28/2510Z FN00231

Example: see airport list